Ackley, Iowa
Current Conditions -  °F | °C
As of 5:55 AM on Thursday 23 Oct 2014 (Local Time) from KIFA Reporting Station
Moderate Rain Moderate Rain  
Wind Chill:   Ceiling: 1600
Heat Index:   Visibility: 10mi
Dew Point:   Wind: 7mph
Humidity: 92%   Direction: 150°SSE
Pressure: 30.04"   Gusts: NA
Location:  42.55°N, 93.05°W
Report Text: KIFA 231055Z AUTO 15006KT 10SM RA OVC016 09/08 A3004 RMK AO2 T00930080
Loading
Personal Weather Stations






























Interactive Weather Map
Tropical Storm Tracking
New forecast layout! Learn more

10-Day Weather Forecast

Advertisements
Track Severe Weather on mobile